Time;durP1;ratioP1;P1;durP2;ratioP2;P2;SDS_P1;SDS_P2;PMS_P1;PMS_P2;Temp;Humidity;BMP_temperature;BMP_pressure;BME280_temperature;BME280_humidity;BME280_pressure;Samples;Min_cycle;Max_cycle;Signal;HPM_P1;HPM_P2
2020/12/27 00:00:28;;;;;;;5.63;2.73;;;5.70;91.30;;;;;;5051847;28;20494;-79
2020/12/27 00:02:54;;;;;;;8.37;2.93;;;5.70;91.20;;;;;;5052983;28;20029;-78
2020/12/27 00:05:20;;;;;;;6.07;2.57;;;5.60;91.20;;;;;;5052889;28;20108;-78
2020/12/27 00:07:47;;;;;;;6.60;2.83;;;5.70;91.30;;;;;;5052929;28;20032;-78
2020/12/27 00:10:12;;;;;;;4.93;2.53;;;5.60;91.20;;;;;;5038750;28;20454;-78
2020/12/27 00:12:38;;;;;;;5.73;2.80;;;5.60;91.00;;;;;;5055610;28;20037;-79
2020/12/27 00:15:04;;;;;;;3.67;1.90;;;5.60;91.20;;;;;;5055675;28;20100;-78
2020/12/27 00:17:29;;;;;;;5.30;2.53;;;5.60;91.20;;;;;;5055762;28;20049;-79
2020/12/27 00:19:55;;;;;;;4.83;2.37;;;5.60;91.10;;;;;;5055430;28;20028;-77
2020/12/27 00:22:21;;;;;;;3.77;2.23;;;5.60;91.10;;;;;;5056600;28;20476;-78
2020/12/27 00:24:47;;;;;;;5.87;2.60;;;5.60;91.00;;;;;;5055544;28;20039;-78
2020/12/27 00:27:16;;;;;;;4.87;2.63;;;5.60;90.90;;;;;;5055258;28;20463;-77
2020/12/27 00:29:42;;;;;;;5.50;2.93;;;5.60;91.00;;;;;;5055236;28;20476;-78
2020/12/27 00:32:07;;;;;;;4.50;2.10;;;5.60;90.90;;;;;;5038633;28;20473;-80
2020/12/27 00:34:33;;;;;;;4.00;2.43;;;5.60;90.90;;;;;;5056290;28;20102;-78
2020/12/27 00:37:00;;;;;;;3.97;2.13;;;5.60;90.90;;;;;;5056610;28;20413;-78
2020/12/27 00:39:27;;;;;;;5.53;2.97;;;5.60;90.60;;;;;;5062863;28;20075;-79
2020/12/27 00:42:00;;;;;;;4.70;2.33;;;5.60;90.60;;;;;;5059177;28;20025;-79
2020/12/27 00:44:26;;;;;;;5.23;2.00;;;5.60;90.60;;;;;;5054969;28;20021;-77
2020/12/27 00:46:52;;;;;;;3.90;2.10;;;5.60;90.60;;;;;;5055027;28;20074;-77
2020/12/27 00:49:19;;;;;;;4.33;2.47;;;5.60;90.60;;;;;;5056097;28;20033;-78
2020/12/27 00:51:46;;;;;;;5.90;2.27;;;5.60;90.50;;;;;;5056124;28;20048;-80
2020/12/27 00:54:12;;;;;;;5.27;2.93;;;5.60;90.50;;;;;;5038279;28;20154;-78
2020/12/27 00:56:39;;;;;;;4.37;2.17;;;5.70;90.50;;;;;;5054753;28;20485;-79
2020/12/27 00:59:05;;;;;;;5.87;2.90;;;5.50;90.20;;;;;;5038155;28;20503;-79
2020/12/27 01:01:31;;;;;;;5.53;2.10;;;5.60;90.20;;;;;;5056050;28;20064;-78
2020/12/27 01:03:57;;;;;;;4.47;2.17;;;5.60;90.10;;;;;;5038025;28;20059;-78
2020/12/27 01:06:27;;;;;;;5.43;2.37;;;5.50;90.00;;;;;;5054486;28;20033;-79
2020/12/27 01:08:55;;;;;;;5.57;2.40;;;5.60;90.00;;;;;;5038188;28;20021;-77
2020/12/27 01:11:21;;;;;;;3.97;2.30;;;5.50;89.50;;;;;;5055323;28;20053;-79
2020/12/27 01:13:47;;;;;;;5.17;2.10;;;5.50;89.50;;;;;;5056459;28;20072;-79
2020/12/27 01:16:18;;;;;;;3.77;1.93;;;5.60;89.60;;;;;;5057416;28;20060;-78
2020/12/27 01:18:50;;;;;;;4.83;2.30;;;5.50;89.60;;;;;;5054000;28;20037;-79
2020/12/27 01:21:28;;;;;;;5.37;1.97;;;5.60;89.70;;;;;;5054835;28;20096;-79
2020/12/27 01:23:54;;;;;;;4.43;1.90;;;5.60;89.70;;;;;;5054101;28;20025;-77
2020/12/27 01:26:31;;;;;;;4.80;2.50;;;5.60;89.70;;;;;;5054079;28;20029;-78
2020/12/27 01:28:57;;;;;;;5.37;2.27;;;5.50;89.10;;;;;;5054044;28;20385;-77
2020/12/27 01:31:24;;;;;;;8.63;3.33;;;5.50;89.00;;;;;;5037250;28;20032;-76
2020/12/27 01:33:49;;;;;;;5.13;2.60;;;5.50;89.20;;;;;;5055260;28;20032;-76
2020/12/27 01:36:37;;;;;;;5.47;3.00;;;5.50;89.40;;;;;;5054051;28;20025;-75
2020/12/27 01:39:07;;;;;;;5.43;2.80;;;5.50;89.30;;;;;;5055374;28;20477;-75
2020/12/27 01:41:33;;;;;;;7.63;2.80;;;5.50;89.20;;;;;;5037795;28;20469;-74
2020/12/27 01:44:10;;;;;;;6.20;3.03;;;5.50;89.30;;;;;;5055103;28;20033;-74
2020/12/27 01:46:38;;;;;;;5.63;2.60;;;5.50;89.40;;;;;;5053702;28;20179;-74
2020/12/27 01:49:08;;;;;;;7.83;2.77;;;5.60;89.30;;;;;;5055041;28;20027;-78
2020/12/27 01:51:34;;;;;;;6.63;3.27;;;5.50;89.20;;;;;;5053899;28;20025;-76
2020/12/27 01:54:00;;;;;;;4.70;2.60;;;5.50;89.30;;;;;;5055459;28;20040;-77
2020/12/27 01:56:40;;;;;;;7.03;3.13;;;5.60;89.40;;;;;;5054375;28;20036;-76
2020/12/27 01:59:13;;;;;;;5.13;2.67;;;5.50;89.30;;;;;;5055715;28;20041;-74
2020/12/27 02:01:40;;;;;;;6.57;2.65;;;5.50;89.30;;;;;;5053934;28;20032;-74
2020/12/27 02:04:06;;;;;;;7.67;3.50;;;5.40;89.50;;;;;;5055117;28;20111;-75
2020/12/27 02:06:32;;;;;;;7.00;3.50;;;5.50;89.30;;;;;;5055437;28;20103;-77
2020/12/27 02:08:59;;;;;;;8.40;3.70;;;5.40;89.60;;;;;;5054490;28;20391;-79
2020/12/27 02:11:25;;;;;;;6.57;3.63;;;5.50;89.50;;;;;;5036582;28;20045;-77
2020/12/27 02:13:53;;;;;;;10.10;3.60;;;5.40;89.40;;;;;;5053166;28;20404;-76
2020/12/27 02:16:20;;;;;;;6.93;3.10;;;5.40;89.50;;;;;;5053196;28;20059;-78
2020/12/27 02:18:46;;;;;;;7.33;3.20;;;5.40;89.20;;;;;;5036528;28;20051;-76
2020/12/27 02:21:12;;;;;;;6.97;2.77;;;5.40;89.60;;;;;;5036487;28;20025;-77
2020/12/27 02:23:38;;;;;;;7.47;2.80;;;5.50;89.60;;;;;;5053510;28;20035;-78
2020/12/27 02:26:05;;;;;;;6.50;3.37;;;5.50;89.60;;;;;;5054214;28;20032;-76
2020/12/27 02:28:32;;;;;;;7.33;3.37;;;5.40;89.40;;;;;;5054140;28;20032;-76
2020/12/27 02:30:58;;;;;;;7.87;3.63;;;5.40;89.20;;;;;;5052266;28;20032;-77
2020/12/27 02:33:24;;;;;;;8.53;3.87;;;5.40;89.50;;;;;;5052832;28;20032;-77
2020/12/27 02:35:49;;;;;;;5.87;2.90;;;5.50;89.20;;;;;;5052841;28;20037;-77
2020/12/27 02:38:15;;;;;;;7.77;2.97;;;5.40;89.20;;;;;;5036257;28;20098;-76
2020/12/27 02:40:42;;;;;;;6.13;3.27;;;5.50;90.00;;;;;;5052769;28;20405;-76
2020/12/27 02:43:15;;;;;;;7.43;3.57;;;5.40;89.20;;;;;;5052764;28;20036;-76
2020/12/27 02:45:41;;;;;;;5.97;2.83;;;5.40;89.20;;;;;;5052607;28;20059;-78
2020/12/27 02:48:07;;;;;;;6.73;3.17;;;5.40;89.30;;;;;;5052963;28;20358;-77
2020/12/27 02:50:33;;;;;;;5.20;2.97;;;5.40;89.30;;;;;;5054162;28;20029;-76
2020/12/27 02:52:59;;;;;;;5.53;2.80;;;5.40;89.40;;;;;;5053945;28;20075;-77
2020/12/27 02:55:25;;;;;;;6.13;3.13;;;5.50;89.40;;;;;;5053779;28;20028;-78
2020/12/27 02:57:50;;;;;;;5.43;2.77;;;5.50;89.30;;;;;;5052683;28;20029;-78
2020/12/27 03:00:16;;;;;;;7.10;2.70;;;5.50;89.10;;;;;;5053737;28;20036;-76
2020/12/27 03:02:42;;;;;;;5.97;2.80;;;5.50;89.40;;;;;;5052300;28;20018;-77
2020/12/27 03:05:07;;;;;;;5.83;2.60;;;5.50;89.20;;;;;;5053580;28;20029;-76
2020/12/27 03:07:33;;;;;;;7.13;2.77;;;5.50;89.20;;;;;;5053596;28;20056;-76
2020/12/27 03:09:59;;;;;;;6.57;3.00;;;5.40;89.00;;;;;;5035839;28;20044;-76
2020/12/27 03:12:24;;;;;;;8.73;2.70;;;5.40;89.10;;;;;;5053516;28;20021;-75
2020/12/27 03:14:50;;;;;;;5.67;2.63;;;5.40;89.00;;;;;;5052612;28;20026;-78
2020/12/27 03:17:16;;;;;;;7.13;2.60;;;5.40;89.00;;;;;;5035611;28;20481;-76
2020/12/27 03:19:41;;;;;;;7.00;2.97;;;5.40;88.90;;;;;;5053448;28;20036;-79
2020/12/27 03:22:07;;;;;;;6.17;2.90;;;5.40;89.00;;;;;;5053563;28;20131;-79
2020/12/27 03:24:33;;;;;;;6.30;2.53;;;5.40;88.90;;;;;;5035550;28;20025;-79
2020/12/27 03:26:58;;;;;;;5.27;2.70;;;5.40;88.90;;;;;;5035446;28;20033;-79
2020/12/27 03:29:24;;;;;;;7.83;2.80;;;5.40;89.00;;;;;;5052159;28;20025;-80
2020/12/27 03:31:50;;;;;;;5.53;2.57;;;5.40;89.10;;;;;;5052050;28;20109;-80
2020/12/27 03:34:16;;;;;;;5.13;2.53;;;5.40;89.20;;;;;;5053147;28;20075;-78
2020/12/27 03:36:42;;;;;;;4.87;2.00;;;5.40;89.30;;;;;;5052147;28;20142;-80
2020/12/27 03:39:08;;;;;;;4.53;2.20;;;5.40;89.40;;;;;;5035496;28;20070;-79
2020/12/27 03:41:33;;;;;;;7.03;2.70;;;5.40;89.30;;;;;;5052455;28;20025;-78
2020/12/27 03:43:59;;;;;;;4.47;2.20;;;5.40;89.40;;;;;;5039533;28;20036;-79
2020/12/27 03:46:24;;;;;;;6.30;2.60;;;5.40;89.40;;;;;;5057246;28;20078;-78
2020/12/27 03:48:50;;;;;;;6.23;2.40;;;5.40;89.50;;;;;;5039441;28;20025;-79
2020/12/27 03:51:16;;;;;;;5.70;2.23;;;5.40;89.50;;;;;;5056204;28;20108;-78
2020/12/27 03:53:41;;;;;;;5.63;3.10;;;5.30;89.90;;;;;;5039322;28;20043;-79
2020/12/27 03:56:07;;;;;;;5.73;2.43;;;5.30;89.90;;;;;;5056193;28;20036;-79
2020/12/27 03:58:33;;;;;;;4.97;2.73;;;5.30;89.80;;;;;;5055986;28;20052;-79
2020/12/27 04:00:58;;;;;;;5.23;2.40;;;5.30;89.90;;;;;;5039382;28;20124;-80
2020/12/27 04:03:24;;;;;;;4.93;2.40;;;5.30;90.00;;;;;;5055943;28;20033;-78
2020/12/27 04:05:50;;;;;;;5.07;2.50;;;5.30;90.00;;;;;;5055552;28;20059;-79
2020/12/27 04:08:16;;;;;;;5.40;2.57;;;5.30;89.70;;;;;;5055691;28;20036;-79
2020/12/27 04:10:41;;;;;;;5.37;2.57;;;5.30;89.80;;;;;;5055471;28;20068;-79
2020/12/27 04:13:07;;;;;;;7.07;2.50;;;5.40;89.70;;;;;;5038884;28;20028;-78
2020/12/27 04:15:33;;;;;;;6.13;2.63;;;5.40;90.20;;;;;;5056750;28;20428;-79
2020/12/27 04:17:58;;;;;;;4.57;2.27;;;5.30;90.50;;;;;;5055570;28;20029;-78
2020/12/27 04:20:24;;;;;;;4.73;2.50;;;5.30;90.60;;;;;;5056657;28;20021;-79
2020/12/27 04:22:50;;;;;;;5.80;2.10;;;5.30;90.60;;;;;;5038732;28;20028;-80
2020/12/27 04:25:17;;;;;;;7.27;2.53;;;5.30;90.60;;;;;;5056527;28;20044;-80
2020/12/27 04:27:43;;;;;;;5.50;2.43;;;5.30;90.60;;;;;;5056495;28;20029;-78
2020/12/27 04:30:08;;;;;;;4.70;2.07;;;5.30;90.60;;;;;;5056300;28;20021;-78
2020/12/27 04:32:34;;;;;;;5.27;2.27;;;5.20;90.50;;;;;;5038651;28;20017;-78
2020/12/27 04:35:00;;;;;;;5.53;2.10;;;5.30;90.60;;;;;;5055285;28;20116;-78
2020/12/27 04:37:26;;;;;;;3.90;1.80;;;5.30;90.40;;;;;;5055261;28;20057;-80
2020/12/27 04:39:51;;;;;;;5.43;1.97;;;5.30;90.50;;;;;;5038457;28;20025;-79
2020/12/27 04:42:17;;;;;;;4.77;2.10;;;5.30;90.50;;;;;;5038533;28;20482;-79
2020/12/27 04:44:43;;;;;;;4.07;1.80;;;5.40;90.50;;;;;;5054902;28;20037;-78
2020/12/27 04:47:09;;;;;;;3.50;1.43;;;5.30;90.40;;;;;;5056176;28;20116;-79
2020/12/27 04:49:35;;;;;;;3.20;1.73;;;5.40;90.30;;;;;;5055031;28;20032;-78
2020/12/27 04:52:02;;;;;;;4.57;1.53;;;5.40;90.20;;;;;;5056261;28;20365;-78
2020/12/27 04:54:28;;;;;;;3.17;1.37;;;5.40;90.20;;;;;;5055278;28;20079;-79
2020/12/27 04:56:55;;;;;;;3.63;1.27;;;5.40;90.30;;;;;;5054717;28;20029;-80
2020/12/27 04:59:21;;;;;;;3.73;1.43;;;5.40;90.40;;;;;;5054662;28;20420;-79
2020/12/27 05:01:50;;;;;;;4.90;1.90;;;5.50;90.60;;;;;;5055450;28;20029;-78
2020/12/27 05:04:21;;;;;;;4.47;1.63;;;5.50;90.80;;;;;;5054830;28;20021;-79
2020/12/27 05:06:47;;;;;;;3.20;1.33;;;5.50;91.10;;;;;;5054797;28;20509;-79
2020/12/27 05:09:13;;;;;;;4.57;1.27;;;5.40;91.10;;;;;;5037872;28;20481;-76
2020/12/27 05:11:39;;;;;;;3.00;1.10;;;5.40;91.60;;;;;;5037838;28;20040;-77
2020/12/27 05:14:04;;;;;;;3.80;1.30;;;5.40;91.50;;;;;;5055680;28;20033;-77
2020/12/27 05:16:31;;;;;;;4.43;1.37;;;5.40;91.60;;;;;;5055789;28;20391;-78
2020/12/27 05:18:58;;;;;;;4.43;1.13;;;5.40;92.10;;;;;;5055758;28;20056;-77
2020/12/27 05:21:25;;;;;;;3.27;1.03;;;5.30;91.90;;;;;;5055635;28;20036;-77
2020/12/27 05:23:51;;;;;;;2.00;1.00;;;5.30;92.00;;;;;;5055554;28;20040;-77
2020/12/27 05:26:18;;;;;;;3.03;1.10;;;5.30;92.30;;;;;;5054081;28;20025;-76
2020/12/27 05:28:44;;;;;;;4.30;1.23;;;5.30;92.40;;;;;;5054147;28;20032;-76
2020/12/27 05:31:12;;;;;;;3.10;1.10;;;5.30;92.90;;;;;;5055305;28;20053;-76
2020/12/27 05:33:39;;;;;;;2.20;1.00;;;5.20;92.70;;;;;;5053941;28;20490;-77
2020/12/27 05:36:05;;;;;;;3.30;1.30;;;5.20;92.90;;;;;;5054116;28;20122;-76
2020/12/27 05:38:30;;;;;;;3.40;0.90;;;5.20;93.10;;;;;;5054298;28;20553;-77
2020/12/27 05:40:56;;;;;;;2.73;1.00;;;5.20;93.10;;;;;;5053994;28;20029;-78
2020/12/27 05:43:22;;;;;;;4.33;1.80;;;5.10;93.20;;;;;;5055142;28;20037;-77
2020/12/27 05:45:47;;;;;;;4.63;1.00;;;5.10;93.40;;;;;;5055027;28;20041;-76
2020/12/27 05:48:13;;;;;;;2.00;0.80;;;5.10;93.70;;;;;;5037262;28;20029;-76
2020/12/27 05:50:41;;;;;;;2.40;1.00;;;5.10;93.90;;;;;;5055231;28;20033;-77
2020/12/27 05:53:20;;;;;;;1.43;0.70;;;5.00;93.90;;;;;;5054983;28;20053;-75
2020/12/27 05:55:51;;;;;;;2.63;1.00;;;5.00;94.10;;;;;;5053632;28;20013;-76
2020/12/27 05:58:21;;;;;;;1.67;0.63;;;5.00;94.10;;;;;;5054891;28;20087;-76
2020/12/27 06:00:58;;;;;;;1.77;0.70;;;5.00;94.40;;;;;;5053536;28;20032;-77
2020/12/27 06:03:26;;;;;;;2.23;0.83;;;5.00;94.30;;;;;;5053648;28;20039;-76
2020/12/27 06:05:54;;;;;;;1.50;0.70;;;5.00;94.40;;;;;;5053779;28;20033;-75
2020/12/27 06:08:29;;;;;;;2.33;0.60;;;5.00;94.50;;;;;;5054633;28;20469;-75
2020/12/27 06:11:06;;;;;;;2.03;0.70;;;5.00;94.70;;;;;;5054597;28;20049;-75
2020/12/27 06:13:40;;;;;;;4.27;1.03;;;4.90;94.90;;;;;;5053444;28;20451;-76
2020/12/27 06:16:12;;;;;;;1.97;0.70;;;4.90;95.20;;;;;;5053276;28;20029;-75
2020/12/27 06:18:39;;;;;;;2.37;0.60;;;4.80;95.40;;;;;;5053149;28;20056;-75
2020/12/27 06:21:04;;;;;;;2.50;0.50;;;4.80;95.50;;;;;;5054360;28;20086;-75
2020/12/27 06:23:31;;;;;;;1.70;0.70;;;4.80;95.70;;;;;;5054302;28;20017;-74
2020/12/27 06:25:59;;;;;;;1.47;0.50;;;4.70;95.80;;;;;;5053137;28;20036;-74
2020/12/27 06:28:24;;;;;;;1.73;0.60;;;4.80;96.00;;;;;;5054281;28;20082;-74
2020/12/27 06:30:56;;;;;;;1.80;0.60;;;4.80;96.10;;;;;;5053091;28;20112;-75
2020/12/27 06:33:26;;;;;;;1.87;0.63;;;4.80;96.20;;;;;;5054171;28;20021;-75
2020/12/27 06:35:51;;;;;;;1.10;0.50;;;4.80;96.20;;;;;;5054109;28;20039;-75
2020/12/27 06:38:21;;;;;;;1.23;0.50;;;4.70;96.20;;;;;;5053347;28;20635;-75
2020/12/27 06:40:51;;;;;;;1.20;0.50;;;4.80;96.30;;;;;;5052838;28;20075;-74
2020/12/27 06:43:24;;;;;;;2.30;0.60;;;4.80;96.40;;;;;;5052789;28;20025;-75
2020/12/27 06:45:50;;;;;;;1.87;1.10;;;4.80;96.60;;;;;;5052597;28;20082;-76
2020/12/27 06:48:34;;;;;;;1.47;0.60;;;4.80;96.70;;;;;;5036051;28;20431;-76
2020/12/27 06:51:00;;;;;;;2.20;0.43;;;4.70;96.80;;;;;;5053794;28;20021;-75
2020/12/27 06:53:45;;;;;;;1.93;0.63;;;4.70;96.90;;;;;;5052717;28;20083;-74
2020/12/27 06:56:13;;;;;;;2.60;0.60;;;4.80;97.00;;;;;;5053835;28;20096;-75
2020/12/27 06:58:59;;;;;;;0.83;0.40;;;4.80;97.10;;;;;;5053782;28;20025;-75
2020/12/27 07:01:25;;;;;;;1.50;0.50;;;4.70;97.10;;;;;;5053704;28;20017;-74
2020/12/27 07:04:13;;;;;;;1.40;0.70;;;4.80;97.20;;;;;;5053646;28;20499;-74
2020/12/27 07:06:41;;;;;;;1.70;0.60;;;4.80;97.30;;;;;;5052234;28;20071;-75
2020/12/27 07:09:07;;;;;;;0.80;0.50;;;4.80;97.30;;;;;;5053277;28;20477;-75
2020/12/27 07:11:33;;;;;;;1.50;0.57;;;4.80;97.30;;;;;;5035727;28;20078;-75
2020/12/27 07:14:00;;;;;;;1.43;0.50;;;4.80;97.40;;;;;;5052168;28;20029;-75
2020/12/27 07:16:44;;;;;;;0.93;0.40;;;4.80;97.40;;;;;;5051794;28;20025;-74
2020/12/27 07:19:15;;;;;;;2.30;0.60;;;4.80;97.50;;;;;;5053335;28;20025;-75
2020/12/27 07:21:43;;;;;;;1.67;0.70;;;4.80;97.40;;;;;;5053471;28;20492;-75
2020/12/27 07:24:08;;;;;;;0.87;0.50;;;4.90;97.40;;;;;;5053376;28;20033;-74
2020/12/27 07:26:44;;;;;;;0.60;0.40;;;4.90;97.50;;;;;;5052352;28;20116;-74
2020/12/27 07:29:20;;;;;;;1.40;0.43;;;4.90;97.50;;;;;;5052118;28;20116;-74
2020/12/27 07:31:46;;;;;;;1.73;0.50;;;4.90;97.50;;;;;;5052105;28;20046;-75
2020/12/27 07:34:14;;;;;;;1.10;0.57;;;4.90;97.40;;;;;;5051934;28;20361;-75
2020/12/27 07:36:40;;;;;;;0.90;0.43;;;4.90;97.30;;;;;;5035352;28;20063;-77
2020/12/27 07:39:06;;;;;;;0.93;0.40;;;5.00;97.30;;;;;;5035401;28;20056;-75
2020/12/27 07:41:34;;;;;;;0.90;0.40;;;5.00;97.30;;;;;;5053271;28;20056;-75
2020/12/27 07:44:00;;;;;;;1.00;0.50;;;5.00;97.20;;;;;;5053215;28;20058;-76
2020/12/27 07:46:28;;;;;;;0.90;0.30;;;5.00;97.20;;;;;;5053137;28;20030;-78
2020/12/27 07:48:54;;;;;;;1.63;0.40;;;5.00;97.00;;;;;;5053250;28;20021;-78
2020/12/27 07:51:22;;;;;;;0.60;0.40;;;5.00;97.00;;;;;;5051889;28;20025;-80
2020/12/27 07:53:57;;;;;;;1.67;0.30;;;5.00;97.00;;;;;;5051957;28;20040;-78
2020/12/27 07:56:25;;;;;;;1.47;0.33;;;5.10;96.80;;;;;;5051888;28;20122;-79
2020/12/27 07:58:56;;;;;;;0.37;0.30;;;5.00;96.70;;;;;;5053648;28;20024;-79
2020/12/27 08:01:33;;;;;;;0.80;0.30;;;5.10;96.70;;;;;;5053064;28;20021;-78
2020/12/27 08:04:04;;;;;;;1.43;0.33;;;5.10;96.50;;;;;;5051747;28;20460;-79
2020/12/27 08:06:32;;;;;;;0.60;0.20;;;5.20;96.40;;;;;;5051595;28;20021;-78
2020/12/27 08:09:09;;;;;;;0.87;0.30;;;5.20;96.40;;;;;;5053133;28;20031;-79
2020/12/27 08:11:37;;;;;;;1.33;0.30;;;5.20;96.20;;;;;;5052290;28;20045;-78
2020/12/27 08:14:05;;;;;;;3.80;0.30;;;5.20;96.40;;;;;;5054751;28;20091;-78
2020/12/27 08:16:31;;;;;;;0.77;0.30;;;5.20;96.00;;;;;;5057477;28;20025;-79
2020/12/27 08:19:18;;;;;;;2.13;0.23;;;5.30;96.00;;;;;;5053885;28;20059;-79
2020/12/27 08:21:45;;;;;;;0.40;0.20;;;5.30;95.90;;;;;;5053186;28;20048;-79
2020/12/27 08:24:12;;;;;;;2.27;0.30;;;5.30;95.70;;;;;;5053364;28;20032;-79
2020/12/27 08:26:40;;;;;;;0.87;0.30;;;5.30;95.50;;;;;;5035681;28;20039;-79
2020/12/27 08:29:11;;;;;;;0.53;0.20;;;5.40;95.40;;;;;;5040745;28;20060;-79
2020/12/27 08:31:37;;;;;;;1.23;0.20;;;5.40;95.40;;;;;;5064534;28;20076;-78
2020/12/27 08:34:07;;;;;;;0.73;0.40;;;5.40;95.30;;;;;;5061630;28;20075;-78
2020/12/27 08:36:33;;;;;;;0.40;0.30;;;5.40;94.90;;;;;;5059535;28;20485;-78
2020/12/27 08:39:32;;;;;;;0.50;0.30;;;5.50;94.90;;;;;;5059762;28;20029;-79
2020/12/27 08:42:22;;;;;;;0.70;0.30;;;5.50;94.80;;;;;;5061146;28;20044;-79
2020/12/27 08:45:02;;;;;;;0.20;0.20;;;5.50;94.60;;;;;;5063336;28;20025;-78
2020/12/27 08:47:40;;;;;;;0.60;0.20;;;5.60;94.50;;;;;;5065664;28;20071;-78
2020/12/27 08:50:10;;;;;;;0.43;0.20;;;5.60;94.30;;;;;;5064708;28;20041;-79
2020/12/27 08:52:37;;;;;;;2.20;0.30;;;5.60;94.30;;;;;;5065525;28;20021;-77
2020/12/27 08:55:05;;;;;;;0.60;0.30;;;5.60;94.30;;;;;;5065233;28;20021;-78
2020/12/27 08:57:32;;;;;;;0.53;0.27;;;5.60;94.50;;;;;;5057710;28;20029;-79
2020/12/27 09:00:15;;;;;;;1.60;0.30;;;5.70;94.60;;;;;;5056582;28;20384;-79
2020/12/27 09:02:41;;;;;;;0.52;0.30;;;5.60;95.10;;;;;;5055703;28;20029;-78
2020/12/27 09:05:14;;;;;;;1.13;0.40;;;5.60;94.90;;;;;;5038395;28;20025;-78
2020/12/27 09:07:44;;;;;;;0.57;0.27;;;5.60;95.10;;;;;;5038271;28;20033;-80
2020/12/27 09:10:18;;;;;;;0.60;0.30;;;5.60;95.30;;;;;;5056247;28;20049;-78
2020/12/27 09:13:04;;;;;;;0.80;0.25;;;5.60;95.40;;;;;;5056127;28;20021;-77
2020/12/27 09:15:30;;;;;;;0.63;0.20;;;5.50;95.50;;;;;;5056046;28;20036;-77
2020/12/27 09:18:01;;;;;;;0.60;0.30;;;5.50;95.70;;;;;;5054694;28;20032;-78
2020/12/27 09:20:29;;;;;;;0.50;0.30;;;5.50;95.70;;;;;;5054592;28;20064;-78
2020/12/27 09:22:55;;;;;;;1.20;0.30;;;5.50;95.90;;;;;;5054592;28;20425;-78
2020/12/27 09:25:22;;;;;;;0.60;0.30;;;5.50;96.00;;;;;;5037677;28;20110;-79
2020/12/27 09:27:51;;;;;;;0.57;0.23;;;5.50;96.10;;;;;;5055294;28;20086;-74
2020/12/27 09:30:24;;;;;;;2.70;0.30;;;5.40;96.10;;;;;;5055060;28;20036;-74
2020/12/27 09:32:59;;;;;;;1.55;0.30;;;5.40;96.10;;;;;;5055494;28;20053;-75
2020/12/27 09:35:25;;;;;;;0.73;0.30;;;5.40;96.30;;;;;;5053938;28;20108;-74
2020/12/27 09:37:51;;;;;;;0.57;0.30;;;5.40;96.30;;;;;;5055310;28;20021;-75
2020/12/27 09:40:19;;;;;;;0.80;0.30;;;5.40;96.40;;;;;;5053882;28;20503;-74
2020/12/27 09:42:45;;;;;;;0.50;0.30;;;5.40;96.40;;;;;;5055249;28;20151;-76
2020/12/27 09:45:25;;;;;;;0.90;0.30;;;5.40;96.50;;;;;;5055399;28;20104;-76
2020/12/27 09:47:59;;;;;;;1.50;0.30;;;5.50;96.60;;;;;;5053969;28;20025;-75
2020/12/27 09:50:36;;;;;;;3.22;0.40;;;5.50;97.00;;;;;;5053839;28;20085;-75
2020/12/27 09:53:05;;;;;;;0.50;0.30;;;5.40;96.70;;;;;;5053713;28;20038;-74
2020/12/27 09:55:34;;;;;;;1.37;0.30;;;5.50;96.60;;;;;;5054948;28;20036;-74
2020/12/27 09:57:59;;;;;;;0.73;0.23;;;5.50;96.60;;;;;;5053653;28;20040;-73
2020/12/27 10:00:25;;;;;;;1.30;0.50;;;5.50;96.70;;;;;;5054816;28;20029;-74
2020/12/27 10:02:51;;;;;;;0.90;0.40;;;5.50;96.70;;;;;;5055164;28;20155;-75
2020/12/27 10:05:16;;;;;;;0.57;0.30;;;5.50;96.70;;;;;;5054847;28;20162;-74
2020/12/27 10:07:43;;;;;;;0.60;0.30;;;5.50;96.90;;;;;;5053442;28;20060;-75
2020/12/27 10:10:11;;;;;;;1.03;0.40;;;5.40;96.90;;;;;;5054481;28;20045;-75
2020/12/27 10:12:37;;;;;;;0.33;0.20;;;5.40;97.00;;;;;;5054743;28;20074;-75
2020/12/27 10:15:05;;;;;;;1.37;0.43;;;5.40;97.00;;;;;;5053284;28;20021;-73
2020/12/27 10:17:31;;;;;;;1.67;0.30;;;5.40;97.20;;;;;;5054460;28;20033;-74
2020/12/27 10:19:58;;;;;;;0.50;0.30;;;5.40;97.20;;;;;;5053361;28;20033;-74
2020/12/27 10:22:25;;;;;;;0.67;0.40;;;5.40;97.30;;;;;;5053044;28;20468;-74
2020/12/27 10:24:50;;;;;;;0.70;0.40;;;5.40;97.30;;;;;;5053221;28;20029;-75
2020/12/27 10:27:16;;;;;;;0.73;0.43;;;5.40;97.30;;;;;;5054346;28;20116;-78
2020/12/27 10:29:42;;;;;;;1.13;0.40;;;5.40;97.30;;;;;;5054058;28;20468;-74
2020/12/27 10:32:08;;;;;;;1.47;0.37;;;5.40;97.30;;;;;;5036724;28;20124;-75
2020/12/27 10:34:34;;;;;;;0.90;0.50;;;5.40;97.30;;;;;;5054127;28;20066;-76
2020/12/27 10:37:02;;;;;;;0.90;0.40;;;5.40;97.40;;;;;;5054008;28;20067;-75
2020/12/27 10:39:28;;;;;;;1.47;0.47;;;5.50;97.40;;;;;;5054716;28;20021;-74
2020/12/27 10:41:54;;;;;;;0.70;0.30;;;5.40;97.40;;;;;;5052832;28;20039;-75
2020/12/27 10:44:21;;;;;;;0.93;0.40;;;5.50;97.40;;;;;;5053913;28;20036;-74
2020/12/27 10:46:49;;;;;;;1.47;0.57;;;5.50;97.30;;;;;;5036276;28;20033;-74
2020/12/27 10:49:16;;;;;;;1.40;0.40;;;5.40;97.20;;;;;;5036596;28;20536;-74
2020/12/27 10:51:42;;;;;;;0.83;0.40;;;5.40;97.20;;;;;;5051923;28;20033;-75
2020/12/27 10:54:09;;;;;;;0.80;0.40;;;5.50;97.30;;;;;;5052695;28;20420;-73
2020/12/27 10:56:35;;;;;;;0.93;0.40;;;5.40;97.20;;;;;;5052580;28;20051;-75
2020/12/27 10:59:01;;;;;;;3.00;0.53;;;5.50;97.10;;;;;;5053817;28;20468;-74
2020/12/27 11:01:27;;;;;;;1.93;0.57;;;5.50;97.10;;;;;;5053770;28;20037;-75
2020/12/27 11:03:53;;;;;;;1.27;0.40;;;5.50;97.00;;;;;;5053701;28;20393;-74
2020/12/27 11:06:18;;;;;;;1.53;0.40;;;5.50;97.00;;;;;;5053671;28;20072;-75
2020/12/27 11:08:44;;;;;;;1.50;0.30;;;5.50;96.90;;;;;;5035778;28;20052;-75
2020/12/27 11:11:10;;;;;;;1.03;0.40;;;5.60;96.90;;;;;;5053373;28;20049;-75
2020/12/27 11:13:36;;;;;;;0.73;0.40;;;5.50;96.70;;;;;;5036690;28;20040;-74
2020/12/27 11:16:02;;;;;;;1.27;0.40;;;5.60;96.70;;;;;;5056854;28;20052;-73
2020/12/27 11:18:28;;;;;;;0.80;0.40;;;5.60;96.70;;;;;;5053476;28;20025;-74
2020/12/27 11:20:53;;;;;;;1.43;0.30;;;5.60;96.70;;;;;;5052168;28;20496;-74
2020/12/27 11:23:19;;;;;;;3.27;0.30;;;5.60;96.50;;;;;;5053525;28;20123;-74
2020/12/27 11:25:45;;;;;;;0.95;0.45;;;5.60;96.50;;;;;;5052302;28;20412;-74
2020/12/27 11:28:11;;;;;;;0.90;0.40;;;5.60;96.40;;;;;;5052387;28;20130;-74
2020/12/27 11:30:36;;;;;;;0.73;0.30;;;5.70;96.30;;;;;;5052197;28;20029;-73
2020/12/27 11:33:02;;;;;;;1.13;0.33;;;5.70;96.10;;;;;;5051967;28;20032;-74
2020/12/27 11:35:28;;;;;;;0.93;0.30;;;5.70;96.10;;;;;;5053193;28;20048;-74
2020/12/27 11:37:53;;;;;;;1.67;0.50;;;5.70;96.10;;;;;;5052414;28;20532;-74
2020/12/27 11:40:20;;;;;;;1.33;0.30;;;5.70;96.00;;;;;;5052151;28;20025;-77
2020/12/27 11:42:46;;;;;;;0.73;0.30;;;5.80;95.90;;;;;;5053380;28;20037;-78
2020/12/27 11:45:12;;;;;;;0.67;0.30;;;5.80;95.80;;;;;;5035665;28;20392;-79
2020/12/27 11:47:37;;;;;;;1.20;0.30;;;5.80;95.80;;;;;;5053141;28;20432;-78
2020/12/27 11:50:06;;;;;;;0.93;0.20;;;5.80;95.80;;;;;;5052423;28;20051;-79
2020/12/27 11:52:32;;;;;;;0.43;0.23;;;5.80;95.50;;;;;;5052225;28;20036;-78
2020/12/27 11:54:58;;;;;;;1.60;0.40;;;5.80;95.40;;;;;;5035351;28;20029;-78
2020/12/27 11:57:23;;;;;;;0.30;0.20;;;5.90;95.40;;;;;;5051884;28;20032;-78
2020/12/27 11:59:49;;;;;;;0.67;0.30;;;5.90;95.10;;;;;;5052262;28;20376;-77
2020/12/27 12:02:14;;;;;;;0.40;0.20;;;5.90;95.00;;;;;;5053086;28;20159;-78
2020/12/27 12:04:40;;;;;;;0.77;0.33;;;5.90;94.90;;;;;;5057000;28;20033;-79
2020/12/27 12:07:06;;;;;;;0.77;0.20;;;5.90;94.70;;;;;;5055621;28;20037;-79
2020/12/27 12:09:31;;;;;;;0.47;0.20;;;6.00;94.60;;;;;;5057244;28;20033;-78
2020/12/27 12:11:57;;;;;;;1.07;0.20;;;6.00;94.30;;;;;;5056797;28;20041;-78
2020/12/27 12:14:23;;;;;;;0.30;0.20;;;6.00;94.10;;;;;;5056957;28;20108;-78
2020/12/27 12:16:49;;;;;;;0.50;0.30;;;6.00;94.10;;;;;;5038788;28;20036;-78
2020/12/27 12:19:14;;;;;;;0.40;0.20;;;6.00;93.90;;;;;;5038806;28;20639;-78
2020/12/27 12:21:40;;;;;;;1.10;0.20;;;6.00;93.50;;;;;;5056623;28;20051;-79
2020/12/27 12:24:06;;;;;;;0.87;0.30;;;6.10;93.60;;;;;;5055584;28;20033;-78
2020/12/27 12:26:32;;;;;;;0.33;0.20;;;6.10;93.50;;;;;;5056100;28;20392;-78
2020/12/27 12:28:59;;;;;;;0.70;0.20;;;6.10;93.40;;;;;;5056747;28;20056;-79
2020/12/27 12:31:26;;;;;;;0.30;0.20;;;6.10;93.60;;;;;;5055387;28;20044;-79
2020/12/27 12:33:52;;;;;;;0.93;0.30;;;6.20;93.30;;;;;;5038397;28;20108;-80
2020/12/27 12:36:24;;;;;;;0.40;0.20;;;6.20;93.40;;;;;;5056345;28;20079;-80
2020/12/27 12:38:51;;;;;;;0.53;0.20;;;6.20;93.20;;;;;;5038587;28;20128;-81
2020/12/27 12:41:23;;;;;;;0.70;0.30;;;6.10;93.20;;;;;;5055152;28;20040;-80
2020/12/27 12:43:48;;;;;;;0.33;0.20;;;6.20;93.00;;;;;;5056572;28;20526;-80
2020/12/27 12:46:14;;;;;;;0.40;0.20;;;6.20;93.10;;;;;;5055038;28;20029;-81
2020/12/27 12:48:40;;;;;;;0.30;0.20;;;6.20;92.90;;;;;;5054953;28;20076;-80
2020/12/27 12:51:07;;;;;;;0.30;0.10;;;6.20;92.80;;;;;;5055046;28;20087;-81
2020/12/27 12:53:32;;;;;;;0.50;0.20;;;6.20;92.60;;;;;;5056378;28;20036;-79
2020/12/27 12:55:58;;;;;;;0.30;0.20;;;6.20;92.60;;;;;;5054835;28;20021;-80
2020/12/27 12:58:24;;;;;;;0.60;0.30;;;6.20;92.60;;;;;;5056050;28;20033;-80
2020/12/27 13:00:50;;;;;;;1.27;0.30;;;6.20;92.60;;;;;;5053965;28;20037;-81